Preview of NWS' New Version of Forecast
This preview is not operational and should not be used for support decisions.

Terminal Aerodrome Forecast (TAF)

Issued by National Weather Service (NWS)

                            
000
FTAK31 PAFC 191721
TAFADL
TAF
PADL 191721Z 1918/2018 02006KT P6SM SKC
     FM200500 VRB06KT P6SM -SHRA OVC050
     FM201200 VRB03KT P6SM -RA OVC035=